sensor_id;sensor_type;location;lat;lon;timestamp;P1;P2;P0
30342;PMS5003;17145;49.902;8.680;2023-12-22T00:00:06;39;28;
30342;PMS5003;17145;49.902;8.680;2023-12-22T00:02:34;34;28;
30342;PMS5003;17145;49.902;8.680;2023-12-22T00:05:02;35;25;
30342;PMS5003;17145;49.902;8.680;2023-12-22T00:07:30;30;28;
30342;PMS5003;17145;49.902;8.680;2023-12-22T00:09:57;28;25;
30342;PMS5003;17145;49.902;8.680;2023-12-22T00:12:24;38;25;
30342;PMS5003;17145;49.902;8.680;2023-12-22T00:14:52;31;23;
30342;PMS5003;17145;49.902;8.680;2023-12-22T00:17:19;31;25;
30342;PMS5003;17145;49.902;8.680;2023-12-22T00:19:47;42;28;
30342;PMS5003;17145;49.902;8.680;2023-12-22T00:22:14;27;25;
30342;PMS5003;17145;49.902;8.680;2023-12-22T00:24:42;33;28;
30342;PMS5003;17145;49.902;8.680;2023-12-22T00:27:09;29;28;
30342;PMS5003;17145;49.902;8.680;2023-12-22T00:29:37;30;26;
30342;PMS5003;17145;49.902;8.680;2023-12-22T00:32:04;32;28;
30342;PMS5003;17145;49.902;8.680;2023-12-22T00:34:32;32;29;
30342;PMS5003;17145;49.902;8.680;2023-12-22T00:37:00;50;34;
30342;PMS5003;17145;49.902;8.680;2023-12-22T00:39:27;27;24;
30342;PMS5003;17145;49.902;8.680;2023-12-22T00:41:55;32;25;
30342;PMS5003;17145;49.902;8.680;2023-12-22T00:44:23;32;28;
30342;PMS5003;17145;49.902;8.680;2023-12-22T00:46:50;33;29;
30342;PMS5003;17145;49.902;8.680;2023-12-22T00:49:17;32;27;
30342;PMS5003;17145;49.902;8.680;2023-12-22T00:51:45;53;32;
30342;PMS5003;17145;49.902;8.680;2023-12-22T00:54:13;31;28;
30342;PMS5003;17145;49.902;8.680;2023-12-22T00:56:40;44;31;
30342;PMS5003;17145;49.902;8.680;2023-12-22T00:59:08;31;28;
30342;PMS5003;17145;49.902;8.680;2023-12-22T01:01:35;48;35;
30342;PMS5003;17145;49.902;8.680;2023-12-22T01:04:03;47;37;
30342;PMS5003;17145;49.902;8.680;2023-12-22T01:06:31;37;35;
30342;PMS5003;17145;49.902;8.680;2023-12-22T01:08:58;51;32;
30342;PMS5003;17145;49.902;8.680;2023-12-22T01:11:25;44;32;
30342;PMS5003;17145;49.902;8.680;2023-12-22T01:13:53;35;35;
30342;PMS5003;17145;49.902;8.680;2023-12-22T01:16:20;29;26;
30342;PMS5003;17145;49.902;8.680;2023-12-22T01:18:48;38;28;
30342;PMS5003;17145;49.902;8.680;2023-12-22T01:21:15;25;24;
30342;PMS5003;17145;49.902;8.680;2023-12-22T01:23:43;30;25;
30342;PMS5003;17145;49.902;8.680;2023-12-22T01:26:10;28;22;
30342;PMS5003;17145;49.902;8.680;2023-12-22T01:28:38;35;25;
30342;PMS5003;17145;49.902;8.680;2023-12-22T01:31:05;31;26;
30342;PMS5003;17145;49.902;8.680;2023-12-22T01:33:33;33;26;
30342;PMS5003;17145;49.902;8.680;2023-12-22T01:36:02;30;24;
30342;PMS5003;17145;49.902;8.680;2023-12-22T01:38:30;39;25;
30342;PMS5003;17145;49.902;8.680;2023-12-22T01:40:57;40;26;
30342;PMS5003;17145;49.902;8.680;2023-12-22T01:43:25;31;26;
30342;PMS5003;17145;49.902;8.680;2023-12-22T01:45:55;39;24;
30342;PMS5003;17145;49.902;8.680;2023-12-22T01:48:23;36;28;
30342;PMS5003;17145;49.902;8.680;2023-12-22T01:50:52;26;25;
30342;PMS5003;17145;49.902;8.680;2023-12-22T01:53:21;37;25;
30342;PMS5003;17145;49.902;8.680;2023-12-22T01:55:50;29;22;
30342;PMS5003;17145;49.902;8.680;2023-12-22T01:58:19;31;26;
30342;PMS5003;17145;49.902;8.680;2023-12-22T02:00:48;25;24;
30342;PMS5003;17145;49.902;8.680;2023-12-22T02:03:16;28;22;
30342;PMS5003;17145;49.902;8.680;2023-12-22T02:05:44;27;21;
30342;PMS5003;17145;49.902;8.680;2023-12-22T02:08:12;29;26;
30342;PMS5003;17145;49.902;8.680;2023-12-22T02:10:41;28;27;
30342;PMS5003;17145;49.902;8.680;2023-12-22T02:13:09;25;24;
30342;PMS5003;17145;49.902;8.680;2023-12-22T02:15:37;24;21;
30342;PMS5003;17145;49.902;8.680;2023-12-22T02:18:06;24;22;
30342;PMS5003;17145;49.902;8.680;2023-12-22T02:20:37;24;22;
30342;PMS5003;17145;49.902;8.680;2023-12-22T02:23:06;24;20;
30342;PMS5003;17145;49.902;8.680;2023-12-22T02:25:33;22;21;
30342;PMS5003;17145;49.902;8.680;2023-12-22T02:28:04;36;22;
30342;PMS5003;17145;49.902;8.680;2023-12-22T02:30:37;25;21;
30342;PMS5003;17145;49.902;8.680;2023-12-22T02:33:10;24;22;
30342;PMS5003;17145;49.902;8.680;2023-12-22T02:35:41;22;20;
30342;PMS5003;17145;49.902;8.680;2023-12-22T02:38:11;21;20;
30342;PMS5003;17145;49.902;8.680;2023-12-22T02:40:40;29;17;
30342;PMS5003;17145;49.902;8.680;2023-12-22T02:43:08;25;25;
30342;PMS5003;17145;49.902;8.680;2023-12-22T02:45:36;22;20;
30342;PMS5003;17145;49.902;8.680;2023-12-22T02:48:04;18;17;
30342;PMS5003;17145;49.902;8.680;2023-12-22T02:50:32;24;20;
30342;PMS5003;17145;49.902;8.680;2023-12-22T02:52:59;20;17;
30342;PMS5003;17145;49.902;8.680;2023-12-22T02:55:27;18;18;
30342;PMS5003;17145;49.902;8.680;2023-12-22T02:57:55;18;18;
30342;PMS5003;17145;49.902;8.680;2023-12-22T03:00:23;18;16;
30342;PMS5003;17145;49.902;8.680;2023-12-22T03:02:50;21;18;
30342;PMS5003;17145;49.902;8.680;2023-12-22T03:05:18;17;16;
30342;PMS5003;17145;49.902;8.680;2023-12-22T03:07:45;20;17;
30342;PMS5003;17145;49.902;8.680;2023-12-22T03:10:12;16;14;
30342;PMS5003;17145;49.902;8.680;2023-12-22T03:12:40;18;18;
30342;PMS5003;17145;49.902;8.680;2023-12-22T03:15:08;21;20;
30342;PMS5003;17145;49.902;8.680;2023-12-22T03:17:36;22;20;
30342;PMS5003;17145;49.902;8.680;2023-12-22T03:20:04;16;16;
30342;PMS5003;17145;49.902;8.680;2023-12-22T03:22:32;21;18;
30342;PMS5003;17145;49.902;8.680;2023-12-22T03:24:59;22;16;
30342;PMS5003;17145;49.902;8.680;2023-12-22T03:27:27;20;18;
30342;PMS5003;17145;49.902;8.680;2023-12-22T03:29:54;21;17;
30342;PMS5003;17145;49.902;8.680;2023-12-22T03:32:22;20;16;
30342;PMS5003;17145;49.902;8.680;2023-12-22T03:34:49;16;14;
30342;PMS5003;17145;49.902;8.680;2023-12-22T03:37:16;18;17;
30342;PMS5003;17145;49.902;8.680;2023-12-22T03:39:44;18;17;
30342;PMS5003;17145;49.902;8.680;2023-12-22T03:42:11;14;14;
30342;PMS5003;17145;49.902;8.680;2023-12-22T03:44:39;18;16;
30342;PMS5003;17145;49.902;8.680;2023-12-22T03:47:06;17;16;
30342;PMS5003;17145;49.902;8.680;2023-12-22T03:49:33;16;16;
30342;PMS5003;17145;49.902;8.680;2023-12-22T03:52:01;17;17;
30342;PMS5003;17145;49.902;8.680;2023-12-22T03:54:29;33;17;
30342;PMS5003;17145;49.902;8.680;2023-12-22T03:56:56;18;15;
30342;PMS5003;17145;49.902;8.680;2023-12-22T03:59:24;17;14;
30342;PMS5003;17145;49.902;8.680;2023-12-22T04:01:52;21;18;
30342;PMS5003;17145;49.902;8.680;2023-12-22T04:04:20;14;13;
30342;PMS5003;17145;49.902;8.680;2023-12-22T04:06:47;18;17;
30342;PMS5003;17145;49.902;8.680;2023-12-22T04:09:15;16;16;
30342;PMS5003;17145;49.902;8.680;2023-12-22T04:11:42;17;14;
30342;PMS5003;17145;49.902;8.680;2023-12-22T04:14:10;14;13;
30342;PMS5003;17145;49.902;8.680;2023-12-22T04:16:37;34;18;
30342;PMS5003;17145;49.902;8.680;2023-12-22T04:19:05;14;14;
30342;PMS5003;17145;49.902;8.680;2023-12-22T04:21:33;18;14;
30342;PMS5003;17145;49.902;8.680;2023-12-22T04:24:00;13;13;
30342;PMS5003;17145;49.902;8.680;2023-12-22T04:26:28;14;14;
30342;PMS5003;17145;49.902;8.680;2023-12-22T04:28:55;14;13;
30342;PMS5003;17145;49.902;8.680;2023-12-22T04:31:22;13;10;
30342;PMS5003;17145;49.902;8.680;2023-12-22T04:33:50;17;16;
30342;PMS5003;17145;49.902;8.680;2023-12-22T04:36:19;14;13;
30342;PMS5003;17145;49.902;8.680;2023-12-22T04:38:46;12;10;
30342;PMS5003;17145;49.902;8.680;2023-12-22T04:41:14;10;10;
30342;PMS5003;17145;49.902;8.680;2023-12-22T04:43:41;13;13;
30342;PMS5003;17145;49.902;8.680;2023-12-22T04:46:09;17;16;
30342;PMS5003;17145;49.902;8.680;2023-12-22T04:48:36;14;14;
30342;PMS5003;17145;49.902;8.680;2023-12-22T04:51:04;19;18;
30342;PMS5003;17145;49.902;8.680;2023-12-22T04:53:31;14;14;
30342;PMS5003;17145;49.902;8.680;2023-12-22T04:55:59;16;16;
30342;PMS5003;17145;49.902;8.680;2023-12-22T04:58:26;24;17;
30342;PMS5003;17145;49.902;8.680;2023-12-22T05:00:54;20;16;
30342;PMS5003;17145;49.902;8.680;2023-12-22T05:03:21;18;14;
30342;PMS5003;17145;49.902;8.680;2023-12-22T05:05:49;20;18;
30342;PMS5003;17145;49.902;8.680;2023-12-22T05:08:16;20;16;
30342;PMS5003;17145;49.902;8.680;2023-12-22T05:10:44;18;16;
30342;PMS5003;17145;49.902;8.680;2023-12-22T05:13:11;22;17;
30342;PMS5003;17145;49.902;8.680;2023-12-22T05:15:39;16;14;
30342;PMS5003;17145;49.902;8.680;2023-12-22T05:18:06;20;18;
30342;PMS5003;17145;49.902;8.680;2023-12-22T05:20:34;18;17;
30342;PMS5003;17145;49.902;8.680;2023-12-22T05:23:02;17;16;
30342;PMS5003;17145;49.902;8.680;2023-12-22T05:25:29;16;14;
30342;PMS5003;17145;49.902;8.680;2023-12-22T05:27:57;20;18;
30342;PMS5003;17145;49.902;8.680;2023-12-22T05:30:25;17;17;
30342;PMS5003;17145;49.902;8.680;2023-12-22T05:32:52;14;14;
30342;PMS5003;17145;49.902;8.680;2023-12-22T05:35:19;17;14;
30342;PMS5003;17145;49.902;8.680;2023-12-22T05:37:47;14;13;
30342;PMS5003;17145;49.902;8.680;2023-12-22T05:40:15;29;17;
30342;PMS5003;17145;49.902;8.680;2023-12-22T05:42:43;20;17;
30342;PMS5003;17145;49.902;8.680;2023-12-22T05:45:10;18;18;
30342;PMS5003;17145;49.902;8.680;2023-12-22T05:47:38;16;14;
30342;PMS5003;17145;49.902;8.680;2023-12-22T05:50:06;18;15;
30342;PMS5003;17145;49.902;8.680;2023-12-22T05:52:34;17;15;
30342;PMS5003;17145;49.902;8.680;2023-12-22T05:55:02;17;15;
30342;PMS5003;17145;49.902;8.680;2023-12-22T05:57:30;18;18;
30342;PMS5003;17145;49.902;8.680;2023-12-22T05:59:57;16;16;
30342;PMS5003;17145;49.902;8.680;2023-12-22T06:02:25;16;16;
30342;PMS5003;17145;49.902;8.680;2023-12-22T06:04:52;17;17;
30342;PMS5003;17145;49.902;8.680;2023-12-22T06:07:20;21;20;
30342;PMS5003;17145;49.902;8.680;2023-12-22T06:09:47;34;19;
30342;PMS5003;17145;49.902;8.680;2023-12-22T06:12:14;19;18;
30342;PMS5003;17145;49.902;8.680;2023-12-22T06:14:42;22;17;
30342;PMS5003;17145;49.902;8.680;2023-12-22T06:17:09;15;15;
30342;PMS5003;17145;49.902;8.680;2023-12-22T06:19:37;17;15;
30342;PMS5003;17145;49.902;8.680;2023-12-22T06:22:04;15;14;
30342;PMS5003;17145;49.902;8.680;2023-12-22T06:24:32;21;17;
30342;PMS5003;17145;49.902;8.680;2023-12-22T06:27:02;17;16;
30342;PMS5003;17145;49.902;8.680;2023-12-22T06:29:29;17;16;
30342;PMS5003;17145;49.902;8.680;2023-12-22T06:31:57;25;22;
30342;PMS5003;17145;49.902;8.680;2023-12-22T06:34:24;21;18;
30342;PMS5003;17145;49.902;8.680;2023-12-22T06:36:52;21;18;
30342;PMS5003;17145;49.902;8.680;2023-12-22T06:39:19;27;18;
30342;PMS5003;17145;49.902;8.680;2023-12-22T06:41:46;29;17;
30342;PMS5003;17145;49.902;8.680;2023-12-22T06:44:13;21;18;
30342;PMS5003;17145;49.902;8.680;2023-12-22T06:46:41;21;19;
30342;PMS5003;17145;49.902;8.680;2023-12-22T06:49:08;15;15;
30342;PMS5003;17145;49.902;8.680;2023-12-22T06:51:36;15;15;
30342;PMS5003;17145;49.902;8.680;2023-12-22T06:54:03;17;15;
30342;PMS5003;17145;49.902;8.680;2023-12-22T06:56:32;26;14;
30342;PMS5003;17145;49.902;8.680;2023-12-22T06:59:00;18;15;
30342;PMS5003;17145;49.902;8.680;2023-12-22T07:01:29;18;17;
30342;PMS5003;17145;49.902;8.680;2023-12-22T07:03:58;19;17;
30342;PMS5003;17145;49.902;8.680;2023-12-22T07:06:26;21;18;
30342;PMS5003;17145;49.902;8.680;2023-12-22T07:11:42;15;14;
30342;PMS5003;17145;49.902;8.680;2023-12-22T07:14:11;23;19;
30342;PMS5003;17145;49.902;8.680;2023-12-22T07:16:39;21;18;
30342;PMS5003;17145;49.902;8.680;2023-12-22T07:19:06;19;18;
30342;PMS5003;17145;49.902;8.680;2023-12-22T07:21:34;21;17;
30342;PMS5003;17145;49.902;8.680;2023-12-22T07:24:01;23;22;
30342;PMS5003;17145;49.902;8.680;2023-12-22T07:26:29;22;19;
30342;PMS5003;17145;49.902;8.680;2023-12-22T07:28:57;22;19;
30342;PMS5003;17145;49.902;8.680;2023-12-22T07:31:25;23;22;
30342;PMS5003;17145;49.902;8.680;2023-12-22T07:33:52;19;18;
30342;PMS5003;17145;49.902;8.680;2023-12-22T07:36:19;21;18;
30342;PMS5003;17145;49.902;8.680;2023-12-22T07:38:47;25;15;
30342;PMS5003;17145;49.902;8.680;2023-12-22T07:41:14;21;19;
30342;PMS5003;17145;49.902;8.680;2023-12-22T07:43:41;27;19;
30342;PMS5003;17145;49.902;8.680;2023-12-22T07:48:44;17;17;
30342;PMS5003;17145;49.902;8.680;2023-12-22T07:51:12;23;22;
30342;PMS5003;17145;49.902;8.680;2023-12-22T07:53:39;26;22;
30342;PMS5003;17145;49.902;8.680;2023-12-22T07:56:07;33;25;
30342;PMS5003;17145;49.902;8.680;2023-12-22T07:58:35;26;19;
30342;PMS5003;17145;49.902;8.680;2023-12-22T08:01:02;25;22;
30342;PMS5003;17145;49.902;8.680;2023-12-22T08:03:30;26;22;
30342;PMS5003;17145;49.902;8.680;2023-12-22T08:05:57;30;25;
30342;PMS5003;17145;49.902;8.680;2023-12-22T08:08:25;23;23;
30342;PMS5003;17145;49.902;8.680;2023-12-22T08:10:52;29;25;
30342;PMS5003;17145;49.902;8.680;2023-12-22T08:13:19;30;25;
30342;PMS5003;17145;49.902;8.680;2023-12-22T08:15:47;27;23;
30342;PMS5003;17145;49.902;8.680;2023-12-22T08:18:14;25;23;
30342;PMS5003;17145;49.902;8.680;2023-12-22T08:20:42;25;23;
30342;PMS5003;17145;49.902;8.680;2023-12-22T08:23:09;26;25;
30342;PMS5003;17145;49.902;8.680;2023-12-22T08:25:36;30;22;
30342;PMS5003;17145;49.902;8.680;2023-12-22T08:28:04;41;23;
30342;PMS5003;17145;49.902;8.680;2023-12-22T08:30:32;22;19;
30342;PMS5003;17145;49.902;8.680;2023-12-22T08:32:59;27;23;
30342;PMS5003;17145;49.902;8.680;2023-12-22T08:35:26;22;21;
30342;PMS5003;17145;49.902;8.680;2023-12-22T08:37:54;23;21;
30342;PMS5003;17145;49.902;8.680;2023-12-22T08:40:21;32;23;
30342;PMS5003;17145;49.902;8.680;2023-12-22T08:42:48;27;26;
30342;PMS5003;17145;49.902;8.680;2023-12-22T08:45:16;27;26;
30342;PMS5003;17145;49.902;8.680;2023-12-22T08:47:43;27;22;
30342;PMS5003;17145;49.902;8.680;2023-12-22T08:50:10;26;23;
30342;PMS5003;17145;49.902;8.680;2023-12-22T08:52:38;25;22;
30342;PMS5003;17145;49.902;8.680;2023-12-22T08:55:05;38;29;
30342;PMS5003;17145;49.902;8.680;2023-12-22T08:57:33;27;23;
30342;PMS5003;17145;49.902;8.680;2023-12-22T09:00:01;26;23;
30342;PMS5003;17145;49.902;8.680;2023-12-22T09:02:28;23;23;
30342;PMS5003;17145;49.902;8.680;2023-12-22T09:04:56;28;27;
30342;PMS5003;17145;49.902;8.680;2023-12-22T09:07:23;21;21;
30342;PMS5003;17145;49.902;8.680;2023-12-22T09:09:50;34;25;
30342;PMS5003;17145;49.902;8.680;2023-12-22T09:12:18;25;22;
30342;PMS5003;17145;49.902;8.680;2023-12-22T09:14:45;28;23;
30342;PMS5003;17145;49.902;8.680;2023-12-22T09:17:13;30;25;
30342;PMS5003;17145;49.902;8.680;2023-12-22T09:19:40;22;22;
30342;PMS5003;17145;49.902;8.680;2023-12-22T09:22:08;22;21;
30342;PMS5003;17145;49.902;8.680;2023-12-22T09:24:36;29;25;
30342;PMS5003;17145;49.902;8.680;2023-12-22T09:27:04;26;22;
30342;PMS5003;17145;49.902;8.680;2023-12-22T09:29:31;23;18;
30342;PMS5003;17145;49.902;8.680;2023-12-22T09:31:59;24;22;
30342;PMS5003;17145;49.902;8.680;2023-12-22T09:34:26;23;19;
30342;PMS5003;17145;49.902;8.680;2023-12-22T09:36:54;20;19;
30342;PMS5003;17145;49.902;8.680;2023-12-22T09:39:22;19;19;
30342;PMS5003;17145;49.902;8.680;2023-12-22T09:41:49;22;17;
30342;PMS5003;17145;49.902;8.680;2023-12-22T09:44:18;18;17;
30342;PMS5003;17145;49.902;8.680;2023-12-22T09:46:47;21;19;
30342;PMS5003;17145;49.902;8.680;2023-12-22T09:49:16;22;21;
30342;PMS5003;17145;49.902;8.680;2023-12-22T09:51:44;14;14;
30342;PMS5003;17145;49.902;8.680;2023-12-22T09:54:13;17;15;
30342;PMS5003;17145;49.902;8.680;2023-12-22T09:56:41;19;18;
30342;PMS5003;17145;49.902;8.680;2023-12-22T09:59:10;18;17;
30342;PMS5003;17145;49.902;8.680;2023-12-22T10:01:40;30;18;
30342;PMS5003;17145;49.902;8.680;2023-12-22T10:04:09;18;17;
30342;PMS5003;17145;49.902;8.680;2023-12-22T10:06:37;17;17;
30342;PMS5003;17145;49.902;8.680;2023-12-22T10:09:04;18;15;
30342;PMS5003;17145;49.902;8.680;2023-12-22T10:11:32;19;15;
30342;PMS5003;17145;49.902;8.680;2023-12-22T10:14:00;19;18;
30342;PMS5003;17145;49.902;8.680;2023-12-22T10:16:29;20;16;
30342;PMS5003;17145;49.902;8.680;2023-12-22T10:18:57;17;14;
30342;PMS5003;17145;49.902;8.680;2023-12-22T10:21:27;13;13;
30342;PMS5003;17145;49.902;8.680;2023-12-22T10:23:54;22;17;
30342;PMS5003;17145;49.902;8.680;2023-12-22T10:26:21;18;18;
30342;PMS5003;17145;49.902;8.680;2023-12-22T10:28:49;14;13;
30342;PMS5003;17145;49.902;8.680;2023-12-22T10:31:17;18;17;
30342;PMS5003;17145;49.902;8.680;2023-12-22T10:33:44;15;14;
30342;PMS5003;17145;49.902;8.680;2023-12-22T10:36:12;18;17;
30342;PMS5003;17145;49.902;8.680;2023-12-22T10:38:40;15;13;
30342;PMS5003;17145;49.902;8.680;2023-12-22T10:41:08;14;13;
30342;PMS5003;17145;49.902;8.680;2023-12-22T10:43:36;19;18;
30342;PMS5003;17145;49.902;8.680;2023-12-22T10:46:05;23;19;
30342;PMS5003;17145;49.902;8.680;2023-12-22T10:48:33;17;17;
30342;PMS5003;17145;49.902;8.680;2023-12-22T10:51:00;19;18;
30342;PMS5003;17145;49.902;8.680;2023-12-22T10:53:28;21;18;
30342;PMS5003;17145;49.902;8.680;2023-12-22T10:55:55;20;19;
30342;PMS5003;17145;49.902;8.680;2023-12-22T10:58:23;20;18;
30342;PMS5003;17145;49.902;8.680;2023-12-22T11:00:51;28;18;
30342;PMS5003;17145;49.902;8.680;2023-12-22T11:03:19;18;17;
30342;PMS5003;17145;49.902;8.680;2023-12-22T11:05:53;18;17;
30342;PMS5003;17145;49.902;8.680;2023-12-22T11:08:24;15;14;
30342;PMS5003;17145;49.902;8.680;2023-12-22T11:10:56;18;15;
30342;PMS5003;17145;49.902;8.680;2023-12-22T11:13:25;19;18;
30342;PMS5003;17145;49.902;8.680;2023-12-22T11:15:52;14;14;
30342;PMS5003;17145;49.902;8.680;2023-12-22T11:18:21;17;15;
30342;PMS5003;17145;49.902;8.680;2023-12-22T11:20:50;14;14;
30342;PMS5003;17145;49.902;8.680;2023-12-22T11:23:18;15;15;
30342;PMS5003;17145;49.902;8.680;2023-12-22T11:25:47;14;14;
30342;PMS5003;17145;49.902;8.680;2023-12-22T11:28:17;14;14;
30342;PMS5003;17145;49.902;8.680;2023-12-22T11:30:46;14;14;
30342;PMS5003;17145;49.902;8.680;2023-12-22T11:33:15;17;15;
30342;PMS5003;17145;49.902;8.680;2023-12-22T11:35:43;15;15;
30342;PMS5003;17145;49.902;8.680;2023-12-22T11:38:13;13;13;
30342;PMS5003;17145;49.902;8.680;2023-12-22T11:40:41;19;15;
30342;PMS5003;17145;49.902;8.680;2023-12-22T11:43:08;19;18;
30342;PMS5003;17145;49.902;8.680;2023-12-22T11:45:37;17;17;
30342;PMS5003;17145;49.902;8.680;2023-12-22T11:48:06;18;14;
30342;PMS5003;17145;49.902;8.680;2023-12-22T11:50:35;18;15;
30342;PMS5003;17145;49.902;8.680;2023-12-22T11:58:33;13;11;
30342;PMS5003;17145;49.902;8.680;2023-12-22T12:01:02;14;13;
30342;PMS5003;17145;49.902;8.680;2023-12-22T12:03:32;13;11;
30342;PMS5003;17145;49.902;8.680;2023-12-22T12:08:41;18;15;
30342;PMS5003;17145;49.902;8.680;2023-12-22T12:11:08;13;11;
30342;PMS5003;17145;49.902;8.680;2023-12-22T12:13:37;14;13;
30342;PMS5003;17145;49.902;8.680;2023-12-22T12:16:09;20;15;
30342;PMS5003;17145;49.902;8.680;2023-12-22T12:18:38;15;13;
30342;PMS5003;17145;49.902;8.680;2023-12-22T12:21:06;15;14;
30342;PMS5003;17145;49.902;8.680;2023-12-22T12:23:34;10;10;
30342;PMS5003;17145;49.902;8.680;2023-12-22T12:26:02;15;14;
30342;PMS5003;17145;49.902;8.680;2023-12-22T12:28:30;15;13;
30342;PMS5003;17145;49.902;8.680;2023-12-22T12:30:59;15;14;
30342;PMS5003;17145;49.902;8.680;2023-12-22T12:33:28;11;11;
30342;PMS5003;17145;49.902;8.680;2023-12-22T12:35:58;17;15;
30342;PMS5003;17145;49.902;8.680;2023-12-22T12:38:32;11;9;
30342;PMS5003;17145;49.902;8.680;2023-12-22T12:41:09;13;11;
30342;PMS5003;17145;49.902;8.680;2023-12-22T12:43:40;10;10;
30342;PMS5003;17145;49.902;8.680;2023-12-22T12:46:09;13;13;
30342;PMS5003;17145;49.902;8.680;2023-12-22T12:48:36;13;13;
30342;PMS5003;17145;49.902;8.680;2023-12-22T12:51:04;14;13;
30342;PMS5003;17145;49.902;8.680;2023-12-22T12:53:33;13;13;
30342;PMS5003;17145;49.902;8.680;2023-12-22T12:56:03;14;11;
30342;PMS5003;17145;49.902;8.680;2023-12-22T12:58:32;11;10;
30342;PMS5003;17145;49.902;8.680;2023-12-22T13:01:06;13;11;
30342;PMS5003;17145;49.902;8.680;2023-12-22T13:06:16;11;10;
30342;PMS5003;17145;49.902;8.680;2023-12-22T13:08:46;13;11;
30342;PMS5003;17145;49.902;8.680;2023-12-22T13:11:15;9;9;
30342;PMS5003;17145;49.902;8.680;2023-12-22T13:13:42;10;10;
30342;PMS5003;17145;49.902;8.680;2023-12-22T13:16:10;10;10;
30342;PMS5003;17145;49.902;8.680;2023-12-22T13:18:38;13;10;
30342;PMS5003;17145;49.902;8.680;2023-12-22T13:21:06;11;10;
30342;PMS5003;17145;49.902;8.680;2023-12-22T13:23:34;9;9;
30342;PMS5003;17145;49.902;8.680;2023-12-22T13:26:01;10;9;
30342;PMS5003;17145;49.902;8.680;2023-12-22T13:28:29;13;11;
30342;PMS5003;17145;49.902;8.680;2023-12-22T13:30:56;7;7;
30342;PMS5003;17145;49.902;8.680;2023-12-22T13:33:26;7;7;
30342;PMS5003;17145;49.902;8.680;2023-12-22T13:35:55;9;7;
30342;PMS5003;17145;49.902;8.680;2023-12-22T13:38:24;10;9;
30342;PMS5003;17145;49.902;8.680;2023-12-22T13:40:51;9;7;
30342;PMS5003;17145;49.902;8.680;2023-12-22T13:43:19;22;10;
30342;PMS5003;17145;49.902;8.680;2023-12-22T13:45:49;7;7;
30342;PMS5003;17145;49.902;8.680;2023-12-22T13:48:17;10;7;
30342;PMS5003;17145;49.902;8.680;2023-12-22T13:53:23;7;7;
30342;PMS5003;17145;49.902;8.680;2023-12-22T13:55:53;7;7;
30342;PMS5003;17145;49.902;8.680;2023-12-22T13:58:22;9;9;
30342;PMS5003;17145;49.902;8.680;2023-12-22T14:00:49;7;7;
30342;PMS5003;17145;49.902;8.680;2023-12-22T14:03:17;11;9;
30342;PMS5003;17145;49.902;8.680;2023-12-22T14:05:44;10;10;
30342;PMS5003;17145;49.902;8.680;2023-12-22T14:08:12;10;10;
30342;PMS5003;17145;49.902;8.680;2023-12-22T14:10:44;7;7;
30342;PMS5003;17145;49.902;8.680;2023-12-22T14:13:11;9;7;
30342;PMS5003;17145;49.902;8.680;2023-12-22T14:15:41;7;7;
30342;PMS5003;17145;49.902;8.680;2023-12-22T14:18:08;6;6;
30342;PMS5003;17145;49.902;8.680;2023-12-22T14:20:36;7;6;
30342;PMS5003;17145;49.902;8.680;2023-12-22T14:23:03;9;7;
30342;PMS5003;17145;49.902;8.680;2023-12-22T14:25:30;9;9;
30342;PMS5003;17145;49.902;8.680;2023-12-22T14:27:58;9;9;
30342;PMS5003;17145;49.902;8.680;2023-12-22T14:30:25;9;7;
30342;PMS5003;17145;49.902;8.680;2023-12-22T14:32:52;6;6;
30342;PMS5003;17145;49.902;8.680;2023-12-22T14:35:20;9;9;
30342;PMS5003;17145;49.902;8.680;2023-12-22T14:37:47;7;7;
30342;PMS5003;17145;49.902;8.680;2023-12-22T14:40:14;6;6;
30342;PMS5003;17145;49.902;8.680;2023-12-22T14:42:42;9;9;
30342;PMS5003;17145;49.902;8.680;2023-12-22T14:45:09;9;9;
30342;PMS5003;17145;49.902;8.680;2023-12-22T14:47:37;5;5;
30342;PMS5003;17145;49.902;8.680;2023-12-22T14:50:05;6;6;
30342;PMS5003;17145;49.902;8.680;2023-12-22T14:52:33;7;7;
30342;PMS5003;17145;49.902;8.680;2023-12-22T14:55:01;7;7;
30342;PMS5003;17145;49.902;8.680;2023-12-22T14:57:28;7;7;
30342;PMS5003;17145;49.902;8.680;2023-12-22T14:59:56;9;7;
30342;PMS5003;17145;49.902;8.680;2023-12-22T15:02:24;6;6;
30342;PMS5003;17145;49.902;8.680;2023-12-22T15:04:51;5;5;
30342;PMS5003;17145;49.902;8.680;2023-12-22T15:07:19;7;7;
30342;PMS5003;17145;49.902;8.680;2023-12-22T15:09:46;6;6;
30342;PMS5003;17145;49.902;8.680;2023-12-22T15:12:13;6;5;
30342;PMS5003;17145;49.902;8.680;2023-12-22T15:14:43;6;5;
30342;PMS5003;17145;49.902;8.680;2023-12-22T15:17:11;7;7;
30342;PMS5003;17145;49.902;8.680;2023-12-22T15:19:39;6;6;
30342;PMS5003;17145;49.902;8.680;2023-12-22T15:22:07;6;6;
30342;PMS5003;17145;49.902;8.680;2023-12-22T15:24:35;5;5;
30342;PMS5003;17145;49.902;8.680;2023-12-22T15:27:03;7;7;
30342;PMS5003;17145;49.902;8.680;2023-12-22T15:29:31;9;7;
30342;PMS5003;17145;49.902;8.680;2023-12-22T15:31:58;7;7;
30342;PMS5003;17145;49.902;8.680;2023-12-22T15:34:26;7;6;
30342;PMS5003;17145;49.902;8.680;2023-12-22T15:36:53;7;7;
30342;PMS5003;17145;49.902;8.680;2023-12-22T15:39:21;5;5;
30342;PMS5003;17145;49.902;8.680;2023-12-22T15:41:48;5;5;
30342;PMS5003;17145;49.902;8.680;2023-12-22T15:44:17;6;6;
30342;PMS5003;17145;49.902;8.680;2023-12-22T15:46:44;5;5;
30342;PMS5003;17145;49.902;8.680;2023-12-22T15:49:11;10;9;
30342;PMS5003;17145;49.902;8.680;2023-12-22T15:51:39;6;5;
30342;PMS5003;17145;49.902;8.680;2023-12-22T15:54:07;7;6;
30342;PMS5003;17145;49.902;8.680;2023-12-22T15:56:34;6;5;
30342;PMS5003;17145;49.902;8.680;2023-12-22T15:59:01;6;6;
30342;PMS5003;17145;49.902;8.680;2023-12-22T16:01:29;5;5;
30342;PMS5003;17145;49.902;8.680;2023-12-22T16:03:56;7;6;
30342;PMS5003;17145;49.902;8.680;2023-12-22T16:06:23;6;6;
30342;PMS5003;17145;49.902;8.680;2023-12-22T16:08:51;5;5;
30342;PMS5003;17145;49.902;8.680;2023-12-22T16:11:19;5;5;
30342;PMS5003;17145;49.902;8.680;2023-12-22T16:13:46;7;5;
30342;PMS5003;17145;49.902;8.680;2023-12-22T16:16:16;5;5;
30342;PMS5003;17145;49.902;8.680;2023-12-22T16:18:44;7;7;
30342;PMS5003;17145;49.902;8.680;2023-12-22T16:21:12;7;7;
30342;PMS5003;17145;49.902;8.680;2023-12-22T16:23:40;6;5;
30342;PMS5003;17145;49.902;8.680;2023-12-22T16:26:07;6;6;
30342;PMS5003;17145;49.902;8.680;2023-12-22T16:28:34;9;7;
30342;PMS5003;17145;49.902;8.680;2023-12-22T16:31:02;6;5;
30342;PMS5003;17145;49.902;8.680;2023-12-22T16:33:30;11;6;
30342;PMS5003;17145;49.902;8.680;2023-12-22T16:35:58;7;7;
30342;PMS5003;17145;49.902;8.680;2023-12-22T16:38:25;6;6;
30342;PMS5003;17145;49.902;8.680;2023-12-22T16:40:52;7;7;
30342;PMS5003;17145;49.902;8.680;2023-12-22T16:43:20;6;6;
30342;PMS5003;17145;49.902;8.680;2023-12-22T16:45:47;6;6;